Time;durP1;ratioP1;P1;durP2;ratioP2;P2;SDS_P1;SDS_P2;PMS_P1;PMS_P2;Temp;Humidity;BMP_temperature;BMP_pressure;BME280_temperature;BME280_humidity;BME280_pressure;Samples;Min_cycle;Max_cycle;Signal;HPM_P1;HPM_P2
2022/07/10 00:01:44;;;;;;;5.30;1.42;;;;;;;14.39;73.23;102817.19;5014041;28;20497;-45
2022/07/10 00:04:11;;;;;;;5.03;2.03;;;;;;;14.41;73.41;102820.19;5013362;28;20058;-47
2022/07/10 00:06:40;;;;;;;3.47;1.40;;;;;;;14.40;73.91;102810.63;5013862;28;20061;-46
2022/07/10 00:09:07;;;;;;;4.47;1.60;;;;;;;14.39;74.18;102817.19;5013904;28;20054;-47
2022/07/10 00:11:34;;;;;;;9.30;1.60;;;;;;;14.32;75.00;102810.81;5013424;28;20050;-48
2022/07/10 00:14:00;;;;;;;9.10;1.77;;;;;;;14.30;73.88;102813.16;5013329;28;20050;-50
2022/07/10 00:16:27;;;;;;;4.22;1.52;;;;;;;14.29;74.15;102816.25;5013675;28;20056;-47
2022/07/10 00:18:53;;;;;;;3.58;1.45;;;;;;;14.31;75.95;102803.94;5013711;28;20050;-48
2022/07/10 00:21:20;;;;;;;4.95;1.50;;;;;;;14.30;75.04;102813.16;5012932;28;20129;-47
2022/07/10 00:23:46;;;;;;;4.88;1.77;;;;;;;14.26;74.87;102809.03;5013692;28;20059;-45
2022/07/10 00:26:13;;;;;;;3.80;1.30;;;;;;;14.25;74.83;102799.47;5012007;28;20058;-46
2022/07/10 00:28:39;;;;;;;2.30;1.30;;;;;;;14.20;74.89;102808.75;5013586;28;20494;-46
2022/07/10 00:31:06;;;;;;;5.60;1.55;;;;;;;14.21;75.04;102798.81;5013215;28;20137;-45
2022/07/10 00:33:33;;;;;;;3.53;1.25;;;;;;;14.15;75.48;102800.44;5013163;28;20050;-51
2022/07/10 00:35:59;;;;;;;3.30;1.40;;;;;;;14.11;75.98;102803.19;5013286;28;20058;-50
2022/07/10 00:38:25;;;;;;;3.35;1.45;;;;;;;14.03;76.52;102802.59;5013431;28;20436;-49
2022/07/10 00:40:53;;;;;;;4.07;1.40;;;;;;;13.96;76.53;102799.31;5012937;28;20050;-46
2022/07/10 00:43:20;;;;;;;4.85;1.88;;;;;;;13.88;76.51;102805.97;5013153;28;20495;-46
2022/07/10 00:45:46;;;;;;;4.10;1.73;;;;;;;13.82;77.83;102795.00;5013205;28;20047;-46
2022/07/10 00:48:13;;;;;;;3.90;1.60;;;;;;;13.83;77.92;102795.75;5012750;28;20585;-45
2022/07/10 00:50:41;;;;;;;5.72;1.90;;;;;;;13.77;78.68;102800.81;5013167;28;20073;-47
2022/07/10 00:53:08;;;;;;;4.65;1.45;;;;;;;13.75;77.60;102799.72;5013010;28;20066;-46
2022/07/10 00:55:35;;;;;;;2.40;1.80;;;;;;;13.72;78.23;102798.63;5012642;28;20054;-50
2022/07/10 00:58:06;;;;;;;5.53;2.03;;;;;;;13.64;78.54;102789.22;5013185;28;20077;-49
2022/07/10 01:00:34;;;;;;;4.03;1.63;;;;;;;13.65;78.47;102801.41;5013284;28;20050;-46
2022/07/10 01:03:01;;;;;;;3.50;1.48;;;;;;;13.60;79.24;102781.25;5012900;28;20064;-47
2022/07/10 01:05:27;;;;;;;4.50;1.38;;;;;;;13.56;78.95;102787.84;5016054;28;20148;-46
2022/07/10 01:07:53;;;;;;;4.68;1.58;;;;;;;13.56;78.54;102779.81;5016208;28;20500;-45
2022/07/10 01:10:20;;;;;;;5.90;1.63;;;;;;;13.60;78.60;102785.84;5015656;28;20050;-46
2022/07/10 01:12:47;;;;;;;5.63;1.73;;;;;;;13.61;78.29;102782.75;5015076;28;20050;-45
2022/07/10 01:15:14;;;;;;;3.65;1.90;;;;;;;13.62;79.10;102781.59;5016231;28;20050;-48
2022/07/10 01:17:40;;;;;;;2.80;1.20;;;;;;;13.63;79.06;102775.06;5016357;28;20054;-50
2022/07/10 01:20:08;;;;;;;2.90;1.48;;;;;;;13.59;78.22;102782.44;5016371;28;20550;-49
2022/07/10 01:22:38;;;;;;;5.93;1.60;;;;;;;13.61;78.94;102772.03;5015742;28;20120;-49
2022/07/10 01:25:06;;;;;;;5.25;1.70;;;;;;;13.55;78.62;102765.69;5016322;28;20154;-47
2022/07/10 01:27:32;;;;;;;4.90;1.60;;;;;;;13.51;79.26;102772.25;5016327;28;20057;-51
2022/07/10 01:29:58;;;;;;;3.38;1.40;;;;;;;13.42;79.66;102762.09;5015515;28;20046;-48
2022/07/10 01:32:25;;;;;;;3.55;1.50;;;;;;;13.39;80.27;102770.19;5015969;28;20064;-45
2022/07/10 01:34:52;;;;;;;6.28;1.52;;;;;;;13.36;79.85;102763.72;5014122;28;20133;-47
2022/07/10 01:37:18;;;;;;;3.10;1.30;;;;;;;13.37;79.77;102765.25;5015050;28;20129;-45
2022/07/10 01:39:44;;;;;;;4.82;1.55;;;;;;;13.37;80.23;102761.81;5015613;28;20520;-46
2022/07/10 01:42:11;;;;;;;6.20;1.48;;;;;;;13.41;80.46;102763.25;5016077;28;20058;-45
2022/07/10 01:44:37;;;;;;;6.22;1.33;;;;;;;13.45;80.42;102758.59;5016033;28;20054;-46
2022/07/10 01:47:03;;;;;;;4.00;1.45;;;;;;;13.48;80.76;102757.78;5015631;28;20050;-48
2022/07/10 01:49:31;;;;;;;3.30;1.38;;;;;;;13.51;81.35;102764.25;5015625;28;20050;-49
2022/07/10 01:51:57;;;;;;;5.28;1.45;;;;;;;13.56;81.01;102758.41;5012128;28;20058;-45
2022/07/10 01:54:24;;;;;;;3.95;1.40;;;;;;;13.60;80.87;102765.19;5015500;28;20050;-45
2022/07/10 01:56:50;;;;;;;4.07;1.50;;;;;;;13.68;80.04;102765.81;5015769;28;20489;-46
2022/07/10 01:59:17;;;;;;;7.10;1.35;;;;;;;13.67;79.45;102767.72;5015696;28;20061;-46
2022/07/10 02:01:43;;;;;;;5.75;1.50;;;;;;;13.77;79.67;102755.31;5015108;28;20054;-46
2022/07/10 02:06:54;;;;;;;5.72;1.85;;;;;;;13.91;79.90;102749.69;5015154;28;20514;-45
2022/07/10 02:09:21;;;;;;;3.58;1.35;;;;;;;13.97;80.27;102745.34;5015478;28;20054;-47
2022/07/10 02:11:47;;;;;;;4.75;1.60;;;;;;;14.02;79.28;102750.19;5015340;28;20054;-47
2022/07/10 02:14:13;;;;;;;8.23;1.90;;;;;;;14.03;78.83;102745.59;5015352;28;20054;-45
2022/07/10 02:16:40;;;;;;;7.88;1.70;;;;;;;14.06;79.20;102741.34;5013811;28;20061;-44
2022/07/10 02:19:06;;;;;;;8.45;1.65;;;;;;;14.09;78.97;102740.50;5014656;28;20055;-49
2022/07/10 02:21:33;;;;;;;6.85;1.58;;;;;;;14.17;80.40;102736.50;5015221;28;20050;-46
2022/07/10 02:23:59;;;;;;;2.38;1.50;;;;;;;14.16;79.92;102732.31;5015462;28;20059;-47
2022/07/10 02:26:26;;;;;;;8.48;1.55;;;;;;;14.15;80.37;102730.81;5014662;28;20050;-45
2022/07/10 02:28:52;;;;;;;5.55;1.80;;;;;;;14.15;79.78;102734.25;5015652;28;20046;-45
2022/07/10 02:31:18;;;;;;;4.95;1.50;;;;;;;14.18;78.94;102736.09;5013753;28;20062;-46
2022/07/10 02:33:45;;;;;;;6.97;1.70;;;;;;;14.11;78.75;102730.88;5015092;28;20081;-46
2022/07/10 02:36:11;;;;;;;4.95;1.50;;;;;;;14.10;79.18;102736.66;5014907;28;20054;-45
2022/07/10 02:38:38;;;;;;;4.22;1.63;;;;;;;14.14;79.81;102730.06;5014946;28;20481;-47
2022/07/10 02:41:05;;;;;;;9.73;1.73;;;;;;;14.12;80.11;102729.72;5011792;28;20069;-48
2022/07/10 02:43:31;;;;;;;5.45;1.50;;;;;;;14.08;79.84;102723.69;5014977;28;20054;-51
2022/07/10 02:45:57;;;;;;;7.63;1.45;;;;;;;14.08;79.79;102726.38;5014780;28;20430;-49
2022/07/10 02:48:24;;;;;;;12.95;1.50;;;;;;;14.09;80.58;102729.81;5014741;28;20060;-51
2022/07/10 02:50:50;;;;;;;7.30;1.67;;;;;;;14.09;78.90;102717.16;5014822;28;20057;-47
2022/07/10 02:53:17;;;;;;;8.38;1.83;;;;;;;14.05;78.35;102724.50;5014414;28;20062;-46
2022/07/10 02:55:43;;;;;;;5.45;1.70;;;;;;;13.99;80.56;102728.88;5014666;28;20060;-44
2022/07/10 02:58:10;;;;;;;6.00;1.50;;;;;;;13.92;80.55;102727.09;5014161;28;20046;-47
2022/07/10 03:00:37;;;;;;;3.40;1.48;;;;;;;13.88;80.33;102726.41;5014587;28;20055;-47
2022/07/10 03:03:03;;;;;;;4.10;1.60;;;;;;;13.83;81.53;102726.13;5014497;28;20120;-51
2022/07/10 03:05:30;;;;;;;5.45;1.55;;;;;;;13.87;80.31;102730.25;5014320;28;20058;-45
2022/07/10 03:07:56;;;;;;;2.92;1.50;;;;;;;13.89;79.66;102725.25;5014787;28;20056;-45
2022/07/10 03:10:23;;;;;;;7.75;1.48;;;;;;;13.93;79.44;102735.88;5013687;28;20066;-44
2022/07/10 03:12:49;;;;;;;6.70;1.58;;;;;;;13.98;81.05;102733.47;5012678;28;20054;-44
2022/07/10 03:15:16;;;;;;;5.65;1.63;;;;;;;13.97;79.95;102731.22;5014768;28;20042;-44
2022/07/10 03:17:42;;;;;;;5.93;1.80;;;;;;;13.99;80.36;102743.00;5014642;28;20050;-49
2022/07/10 03:20:09;;;;;;;6.70;1.73;;;;;;;14.02;80.31;102746.75;5013412;28;20129;-45
2022/07/10 03:22:37;;;;;;;5.32;1.75;;;;;;;14.05;79.67;102726.44;5014539;28;20522;-48
2022/07/10 03:25:03;;;;;;;4.00;1.48;;;;;;;14.08;80.00;102722.94;5014576;28;20054;-49
2022/07/10 03:27:30;;;;;;;3.25;1.55;;;;;;;14.08;79.25;102726.38;5012518;28;20490;-45
2022/07/10 03:29:56;;;;;;;4.72;1.70;;;;;;;14.08;78.97;102737.06;5027760;28;20428;-45
2022/07/10 03:32:22;;;;;;;4.68;1.52;;;;;;;14.13;79.58;102730.47;5014146;28;20056;-46
2022/07/10 03:34:49;;;;;;;4.50;1.55;;;;;;;14.14;79.69;102730.06;5014217;28;20097;-46
2022/07/10 03:37:15;;;;;;;5.43;1.65;;;;;;;14.15;78.86;102726.22;5014177;28;20064;-46
2022/07/10 03:39:42;;;;;;;5.65;1.38;;;;;;;14.12;78.94;102731.66;5012310;28;20054;-45
2022/07/10 03:42:08;;;;;;;4.50;1.60;;;;;;;14.11;79.71;102725.53;5014391;28;20050;-47
2022/07/10 03:44:34;;;;;;;5.82;1.40;;;;;;;14.16;79.60;102726.97;5013740;28;20050;-49
2022/07/10 03:47:01;;;;;;;4.00;1.50;;;;;;;14.18;78.32;102730.00;5014272;28;20481;-45
2022/07/10 03:49:27;;;;;;;7.88;1.70;;;;;;;14.19;78.92;102728.81;5013648;28;20137;-45
2022/07/10 03:51:54;;;;;;;4.55;1.50;;;;;;;14.20;79.41;102733.00;5012553;28;20062;-50
2022/07/10 03:54:20;;;;;;;3.53;1.38;;;;;;;14.21;79.53;102724.56;5014057;28;20054;-47
2022/07/10 03:59:32;;;;;;;7.97;1.90;;;;;;;14.24;79.32;102718.38;5012978;28;20054;-49
2022/07/10 04:01:58;;;;;;;2.95;1.30;;;;;;;14.30;80.25;102705.22;5014319;28;20081;-48
2022/07/10 04:04:24;;;;;;;4.53;1.58;;;;;;;14.33;80.47;102707.09;5012279;28;20050;-47
2022/07/10 04:06:51;;;;;;;7.78;1.85;;;;;;;14.38;80.85;102713.88;5013801;28;20050;-48
2022/07/10 04:09:17;;;;;;;3.65;1.35;;;;;;;14.38;80.57;102709.25;5013739;28;20133;-44
2022/07/10 04:11:44;;;;;;;2.58;1.25;;;;;;;14.36;79.89;102716.97;5013152;28;20055;-43
2022/07/10 04:14:10;;;;;;;2.28;1.25;;;;;;;14.33;79.88;102718.56;5013264;28;20070;-46
2022/07/10 04:16:36;;;;;;;4.20;1.45;;;;;;;14.33;80.04;102707.09;5013640;28;20061;-45
2022/07/10 04:19:03;;;;;;;3.72;1.25;;;;;;;14.35;80.18;102716.22;5013040;28;20094;-47
2022/07/10 04:21:29;;;;;;;2.17;1.23;;;;;;;14.38;78.53;102717.31;5010984;28;20050;-44
2022/07/10 04:23:56;;;;;;;2.80;1.40;;;;;;;14.42;80.28;102717.97;5013294;28;20493;-46
2022/07/10 04:26:22;;;;;;;5.68;1.83;;;;;;;14.46;79.85;102715.97;5012283;28;20054;-43
2022/07/10 04:28:49;;;;;;;4.18;1.17;;;;;;;14.45;79.46;102706.44;5013070;28;20058;-45
2022/07/10 04:31:15;;;;;;;5.80;2.20;;;;;;;14.46;79.78;102715.22;5013564;28;20053;-45
2022/07/10 04:33:42;;;;;;;3.63;1.88;;;;;;;14.43;78.51;102714.13;5011926;28;20525;-48
2022/07/10 04:36:08;;;;;;;8.40;1.92;;;;;;;14.45;78.54;102721.75;5013192;28;20491;-49
2022/07/10 04:38:35;;;;;;;2.55;1.50;;;;;;;14.51;78.59;102714.72;5013651;28;20069;-52
2022/07/10 04:41:01;;;;;;;3.08;1.48;;;;;;;14.55;79.97;102707.34;5016401;28;20553;-48
2022/07/10 04:43:29;;;;;;;2.90;1.25;;;;;;;14.56;79.69;102711.53;5016959;28;20058;-45
2022/07/10 04:45:56;;;;;;;8.35;2.00;;;;;;;14.62;80.32;102715.22;5016416;28;20499;-46
2022/07/10 04:48:23;;;;;;;9.95;1.65;;;;;;;14.58;79.50;102717.25;5016412;28;20058;-50
2022/07/10 04:50:49;;;;;;;9.82;1.70;;;;;;;14.62;79.32;102715.22;5016470;28;20177;-48
2022/07/10 04:53:16;;;;;;;3.83;1.33;;;;;;;14.67;79.74;102712.03;5015154;28;20529;-46
2022/07/10 04:55:42;;;;;;;5.35;1.55;;;;;;;14.70;78.64;102716.56;5016073;28;20053;-50
2022/07/10 04:58:09;;;;;;;9.45;1.58;;;;;;;14.77;79.90;102716.41;5014925;28;20489;-48
2022/07/10 05:00:35;;;;;;;6.38;1.48;;;;;;;14.87;78.41;102707.31;5016293;28;20047;-50
2022/07/10 05:03:02;;;;;;;6.15;1.80;;;;;;;14.91;78.92;102715.28;5016683;28;20471;-48
2022/07/10 05:05:28;;;;;;;7.22;1.70;;;;;;;14.96;79.97;102712.09;5013273;28;20530;-50
2022/07/10 05:07:54;;;;;;;5.03;1.23;;;;;;;15.04;80.15;102720.72;5016191;28;20081;-45
2022/07/10 05:10:21;;;;;;;5.55;1.50;;;;;;;15.18;78.09;102717.66;5015766;28;20085;-47
2022/07/10 05:12:48;;;;;;;4.28;1.38;;;;;;;15.52;77.63;102723.25;5014958;28;20057;-46
2022/07/10 05:15:14;;;;;;;6.25;1.67;;;;;;;15.94;76.13;102718.63;5014484;28;20050;-45
2022/07/10 05:17:41;;;;;;;3.80;1.58;;;;;;;16.13;74.57;102716.88;5013240;28;20499;-44
2022/07/10 05:20:08;;;;;;;8.43;1.83;;;;;;;15.99;76.48;102720.75;5012687;28;20047;-44
2022/07/10 05:22:34;;;;;;;11.65;1.73;;;;;;;15.91;77.20;102727.53;5016070;28;20054;-50
2022/07/10 05:25:01;;;;;;;4.82;2.10;;;;;;;15.80;74.99;102718.28;5015916;28;20054;-45
2022/07/10 05:27:27;;;;;;;7.03;1.77;;;;;;;15.72;76.26;102716.97;5016418;28;20058;-51
2022/07/10 05:29:54;;;;;;;7.57;1.60;;;;;;;15.63;76.17;102718.34;5016048;28;20046;-46
2022/07/10 05:32:21;;;;;;;4.40;1.67;;;;;;;15.56;76.07;102721.25;5015495;28;20388;-45
2022/07/10 05:34:47;;;;;;;4.35;1.63;;;;;;;15.52;78.38;102725.94;5016241;28;20058;-52
2022/07/10 05:37:14;;;;;;;9.15;2.03;;;;;;;15.41;78.55;102727.38;5016026;28;20061;-48
2022/07/10 05:39:40;;;;;;;6.88;1.55;;;;;;;15.36;77.28;102725.97;5014708;28;20062;-46
2022/07/10 05:42:06;;;;;;;7.68;1.88;;;;;;;15.31;77.91;102727.25;5013952;28;20065;-45
2022/07/10 05:44:33;;;;;;;7.57;1.80;;;;;;;15.28;78.50;102714.69;5014021;28;20050;-45
2022/07/10 05:46:59;;;;;;;6.03;1.80;;;;;;;15.26;78.02;102714.34;5013845;28;20061;-46
2022/07/10 05:49:26;;;;;;;10.30;2.47;;;;;;;15.28;79.23;102716.59;5014445;28;20047;-45
2022/07/10 05:51:52;;;;;;;6.38;1.83;;;;;;;15.25;78.68;102718.22;5014262;28;20050;-46
2022/07/10 05:54:18;;;;;;;5.65;1.77;;;;;;;15.18;78.55;102721.09;5015972;28;20050;-45
2022/07/10 05:56:45;;;;;;;9.40;1.90;;;;;;;15.13;79.20;102718.94;5015440;28;20062;-45
2022/07/10 05:59:11;;;;;;;5.72;1.48;;;;;;;15.13;78.48;102716.25;5015953;28;20141;-47
2022/07/10 06:01:38;;;;;;;9.30;1.75;;;;;;;15.19;78.04;102724.53;5014144;28;20050;-47
2022/07/10 06:04:04;;;;;;;7.43;2.03;;;;;;;15.23;80.29;102719.81;5015491;28;20062;-48
2022/07/10 06:06:31;;;;;;;3.83;2.08;;;;;;;15.27;78.94;102718.53;5014514;28;20054;-45
2022/07/10 06:08:59;;;;;;;4.63;1.55;;;;;;;15.35;78.00;102717.19;5016064;28;20065;-50
2022/07/10 06:11:25;;;;;;;11.98;1.75;;;;;;;15.55;78.90;102719.72;5015376;28;20149;-51
2022/07/10 06:13:51;;;;;;;4.53;1.90;;;;;;;15.80;76.44;102727.09;5015329;28;20046;-49
2022/07/10 06:16:18;;;;;;;5.50;2.33;;;;;;;16.00;76.32;102718.81;5015242;28;20063;-45
2022/07/10 06:18:44;;;;;;;4.72;1.92;;;;;;;16.17;75.96;102714.09;5015587;28;20054;-45
2022/07/10 06:21:11;;;;;;;8.27;2.53;;;;;;;16.31;76.71;102716.34;5014562;28;20129;-46
2022/07/10 06:23:38;;;;;;;9.68;1.90;;;;;;;16.39;74.16;102719.56;5014837;28;20058;-46
2022/07/10 06:26:04;;;;;;;9.15;1.80;;;;;;;16.26;73.71;102719.59;5014951;28;20058;-46
2022/07/10 06:28:34;;;;;;;5.30;1.88;;;;;;;16.17;75.67;102722.16;5015078;28;20058;-46
2022/07/10 06:31:00;;;;;;;6.10;1.50;;;;;;;16.19;74.83;102728.59;5014995;28;20061;-44
2022/07/10 06:33:27;;;;;;;7.80;1.65;;;;;;;16.21;74.62;102730.88;5013576;28;20054;-48
2022/07/10 06:35:53;;;;;;;3.85;1.48;;;;;;;16.14;74.92;102731.84;5014912;28;20060;-45
2022/07/10 06:38:19;;;;;;;6.10;1.63;;;;;;;16.07;75.48;102723.97;5014619;28;20536;-47
2022/07/10 06:40:47;;;;;;;6.10;1.90;;;;;;;16.01;75.47;102731.81;5015020;28;20126;-51
2022/07/10 06:43:13;;;;;;;6.97;1.80;;;;;;;15.90;75.18;102730.66;5014956;28;20497;-47
2022/07/10 06:45:40;;;;;;;4.90;1.70;;;;;;;15.79;77.06;102738.25;5014213;28;20089;-46
2022/07/10 06:48:07;;;;;;;5.63;1.88;;;;;;;15.81;76.29;102733.97;5014893;28;20502;-48
2022/07/10 06:50:34;;;;;;;6.53;1.70;;;;;;;15.83;76.54;102738.91;5015000;28;20061;-48
2022/07/10 06:53:05;;;;;;;6.57;1.90;;;;;;;15.92;76.60;102734.41;5014420;28;20070;-49
2022/07/10 06:55:32;;;;;;;10.43;1.75;;;;;;;15.95;77.03;102732.81;5015060;28;20059;-47
2022/07/10 06:57:59;;;;;;;4.03;1.65;;;;;;;16.00;76.82;102722.25;5014642;28;20061;-47
2022/07/10 07:00:26;;;;;;;5.47;1.67;;;;;;;16.14;75.25;102728.38;5013668;28;20061;-50
2022/07/10 07:02:53;;;;;;;4.28;1.80;;;;;;;16.23;75.73;102726.56;5014907;28;20133;-47
2022/07/10 07:05:19;;;;;;;4.32;1.65;;;;;;;16.26;74.45;102727.63;5013344;28;20541;-48
2022/07/10 07:07:46;;;;;;;4.75;2.00;;;;;;;16.26;74.90;102725.72;5015076;28;20058;-48
2022/07/10 07:10:12;;;;;;;5.10;1.77;;;;;;;16.27;74.88;102729.16;5014584;28;20050;-44
2022/07/10 07:12:39;;;;;;;5.13;1.40;;;;;;;16.33;75.14;102719.38;5014928;28;20061;-50
2022/07/10 07:15:06;;;;;;;3.55;1.48;;;;;;;16.39;74.60;102724.97;5013889;28;20509;-48
2022/07/10 07:17:46;;;;;;;8.05;1.92;;;;;;;16.45;73.80;102728.59;5014831;28;20054;-47
2022/07/10 07:23:09;;;;;;;4.55;1.58;;;;;;;16.57;74.67;102735.88;5014236;28;20089;-46
2022/07/10 07:25:39;;;;;;;6.78;1.92;;;;;;;16.59;73.29;102736.19;5014606;28;20528;-48
2022/07/10 07:28:06;;;;;;;5.65;2.00;;;;;;;16.66;74.17;102727.94;5013906;28;20054;-48
2022/07/10 07:30:33;;;;;;;10.43;1.85;;;;;;;16.69;74.11;102732.47;5014463;28;20582;-49
2022/07/10 07:32:59;;;;;;;10.68;1.70;;;;;;;16.97;72.45;102726.13;5013838;28;20055;-48
2022/07/10 07:35:26;;;;;;;3.63;2.17;;;;;;;17.24;70.61;102738.28;5013776;28;20052;-45
2022/07/10 07:37:52;;;;;;;6.30;2.15;;;;;;;17.48;71.62;102725.16;5014626;28;20058;-46
2022/07/10 07:40:22;;;;;;;8.32;1.70;;;;;;;17.62;68.97;102728.06;5014061;28;20084;-48
2022/07/10 07:42:55;;;;;;;8.15;2.47;;;;;;;17.50;68.35;102726.22;5013909;28;20141;-48
2022/07/10 07:45:22;;;;;;;4.85;1.58;;;;;;;17.44;71.34;102733.34;5014113;28;20483;-47
2022/07/10 07:47:51;;;;;;;6.15;1.70;;;;;;;17.61;69.51;102740.03;5013864;28;20046;-48
2022/07/10 07:50:20;;;;;;;4.60;1.55;;;;;;;17.88;67.90;102736.00;5014292;28;20046;-46
2022/07/10 07:52:47;;;;;;;4.65;1.58;;;;;;;17.92;66.99;102728.56;5014315;28;20058;-48
2022/07/10 07:55:15;;;;;;;4.65;1.77;;;;;;;17.65;68.10;102739.91;5012886;28;20141;-46
2022/07/10 07:57:43;;;;;;;6.07;1.80;;;;;;;17.55;69.48;102741.06;5014213;28;20054;-48
2022/07/10 08:00:10;;;;;;;3.95;1.42;;;;;;;17.54;69.10;102745.69;5013392;28;20169;-47
2022/07/10 08:02:37;;;;;;;4.45;1.67;;;;;;;17.47;70.25;102742.50;5014301;28;20506;-44
2022/07/10 08:05:05;;;;;;;6.35;2.13;;;;;;;17.57;70.72;102747.50;5013313;28;20055;-47
2022/07/10 08:07:39;;;;;;;3.47;1.52;;;;;;;17.62;68.44;102746.16;5010277;28;20065;-46
2022/07/10 08:10:09;;;;;;;5.65;1.80;;;;;;;17.51;68.47;102745.81;5012168;28;20058;-46
2022/07/10 08:12:36;;;;;;;3.42;1.67;;;;;;;17.38;70.64;102745.88;5012287;28;20058;-45
2022/07/10 08:15:02;;;;;;;5.25;1.80;;;;;;;17.47;69.76;102737.84;5011486;28;20064;-44
2022/07/10 08:17:29;;;;;;;4.43;1.80;;;;;;;17.58;70.36;102740.94;5012604;28;20054;-48
2022/07/10 08:19:55;;;;;;;5.88;1.67;;;;;;;17.59;68.15;102736.28;5013359;28;20054;-44
2022/07/10 08:22:21;;;;;;;3.75;1.40;;;;;;;17.67;70.40;102743.69;5013866;28;20050;-48
2022/07/10 08:24:48;;;;;;;5.65;1.58;;;;;;;17.97;69.91;102738.75;5013789;28;20059;-46
2022/07/10 08:27:15;;;;;;;5.35;1.73;;;;;;;18.29;66.39;102737.53;5012816;28;20511;-51
2022/07/10 08:29:42;;;;;;;3.42;1.88;;;;;;;18.42;68.42;102742.78;5012931;28;20082;-47
2022/07/10 08:32:09;;;;;;;4.20;1.80;;;;;;;18.33;68.88;102732.75;5013717;28;20051;-47
2022/07/10 08:34:36;;;;;;;6.45;1.67;;;;;;;18.29;66.98;102732.88;5013568;28;20125;-45
2022/07/10 08:37:03;;;;;;;5.57;1.70;;;;;;;18.11;68.86;102738.19;5013236;28;20059;-48
2022/07/10 08:39:30;;;;;;;2.05;1.45;;;;;;;18.20;68.02;102737.47;5013430;28;20176;-46
2022/07/10 08:41:56;;;;;;;4.43;1.60;;;;;;;18.43;66.26;102731.53;5013250;28;20487;-48
2022/07/10 08:44:23;;;;;;;2.53;1.58;;;;;;;18.60;66.06;102738.22;5013075;28;20060;-48
2022/07/10 08:46:49;;;;;;;3.50;1.50;;;;;;;18.93;64.43;102734.94;5013545;28;20057;-49
2022/07/10 08:49:16;;;;;;;6.82;1.98;;;;;;;19.30;63.99;102739.13;5013750;28;20046;-47
2022/07/10 08:51:53;;;;;;;2.75;1.65;;;;;;;19.71;62.32;102736.94;5013299;28;20141;-49
2022/07/10 08:54:20;;;;;;;2.83;1.67;;;;;;;20.10;60.56;102731.69;5012608;28;20062;-47
2022/07/10 08:56:48;;;;;;;6.03;1.85;;;;;;;20.55;61.18;102734.16;5013154;28;20054;-49
2022/07/10 08:59:15;;;;;;;2.90;1.80;;;;;;;20.90;58.38;102733.59;5012598;28;20056;-47
2022/07/10 09:01:41;;;;;;;6.13;1.70;;;;;;;20.72;57.44;102733.75;5013048;28;20047;-51
2022/07/10 09:04:16;;;;;;;2.22;1.63;;;;;;;20.64;58.36;102728.69;5012939;28;20117;-49
2022/07/10 09:06:43;;;;;;;2.53;1.48;;;;;;;20.67;57.48;102727.03;5012290;28;20528;-48
2022/07/10 09:09:10;;;;;;;3.40;1.75;;;;;;;20.83;58.16;102728.53;5013072;28;20055;-48
2022/07/10 09:11:40;;;;;;;4.35;1.50;;;;;;;20.76;58.22;102729.66;5012638;28;20057;-48
2022/07/10 09:14:10;;;;;;;1.98;1.30;;;;;;;20.80;58.33;102724.06;5013084;28;20446;-46
2022/07/10 09:16:39;;;;;;;5.97;1.70;;;;;;;20.64;57.08;102733.34;5013244;28;20070;-48
2022/07/10 09:19:22;;;;;;;5.10;1.42;;;;;;;20.27;59.65;102725.44;5012266;28;20054;-50
2022/07/10 09:21:50;;;;;;;2.45;1.50;;;;;;;19.99;58.51;102726.81;5012935;28;20558;-49
2022/07/10 09:24:21;;;;;;;1.88;1.40;;;;;;;19.70;59.30;102721.94;5012789;28;20438;-48
2022/07/10 09:27:03;;;;;;;1.83;1.42;;;;;;;19.86;60.78;102718.16;5015671;28;20054;-47
2022/07/10 09:29:31;;;;;;;4.38;1.55;;;;;;;19.98;61.75;102717.94;5014889;28;20046;-45
2022/07/10 09:32:02;;;;;;;1.40;1.30;;;;;;;20.17;60.25;102724.00;5014992;28;20067;-45
2022/07/10 09:34:42;;;;;;;4.47;1.70;;;;;;;20.55;60.96;102712.53;5015401;28;20058;-47
2022/07/10 09:37:19;;;;;;;3.88;1.60;;;;;;;20.39;59.46;102712.19;5016166;28;20517;-46
2022/07/10 09:40:07;;;;;;;3.45;1.60;;;;;;;20.31;59.80;102715.22;5015806;28;20054;-45
2022/07/10 09:42:41;;;;;;;1.90;1.40;;;;;;;19.91;58.84;102710.16;5015620;28;20050;-46
2022/07/10 09:45:11;;;;;;;2.67;1.33;;;;;;;19.84;60.94;102707.78;5016085;28;20084;-45
2022/07/10 09:47:39;;;;;;;1.42;1.33;;;;;;;19.99;62.05;102697.06;5015851;28;20054;-47
2022/07/10 09:50:25;;;;;;;1.98;1.23;;;;;;;20.36;59.33;102696.88;5012511;28;20050;-47
2022/07/10 09:52:57;;;;;;;3.83;1.70;;;;;;;20.76;58.45;102691.03;5012030;28;20145;-46
2022/07/10 09:55:29;;;;;;;2.85;1.40;;;;;;;21.09;55.86;102694.34;5014913;28;20505;-48
2022/07/10 09:58:01;;;;;;;2.42;1.42;;;;;;;21.19;57.58;102695.72;5012889;28;20511;-47
2022/07/10 10:00:33;;;;;;;7.35;1.33;;;;;;;21.12;56.64;102696.13;5012702;28;20054;-47
2022/07/10 10:03:05;;;;;;;1.85;1.60;;;;;;;20.72;57.82;102696.63;5014960;28;20130;-49
2022/07/10 10:05:53;;;;;;;2.08;1.75;;;;;;;20.92;58.36;102685.91;5014521;28;20066;-46
2022/07/10 10:08:36;;;;;;;2.50;1.58;;;;;;;21.46;58.15;102683.91;5014239;28;20061;-49
2022/07/10 10:11:06;;;;;;;3.80;1.58;;;;;;;21.96;54.34;102689.31;5012536;28;20065;-49
2022/07/10 10:13:41;;;;;;;3.30;1.30;;;;;;;21.60;56.61;102693.94;5014156;28;20050;-48
2022/07/10 10:16:09;;;;;;;3.00;1.42;;;;;;;21.26;56.96;102700.06;5013313;28;20152;-47
2022/07/10 10:18:36;;;;;;;1.92;1.30;;;;;;;20.95;57.15;102693.09;5015432;28;20054;-47
2022/07/10 10:21:06;;;;;;;2.15;1.67;;;;;;;20.58;59.11;102700.03;5014688;28;20054;-50
2022/07/10 10:23:34;;;;;;;4.47;1.33;;;;;;;20.37;58.09;102699.09;5015242;28;20057;-49
2022/07/10 10:26:01;;;;;;;2.85;1.30;;;;;;;20.24;59.69;102702.03;5013988;28;20058;-47
2022/07/10 10:28:28;;;;;;;2.92;1.70;;;;;;;20.42;60.67;102701.19;5015458;28;20058;-47
2022/07/10 10:30:59;;;;;;;1.83;1.60;;;;;;;20.27;58.09;102698.41;5014867;28;20168;-50
2022/07/10 10:33:31;;;;;;;1.55;1.42;;;;;;;20.22;58.53;102701.75;5015174;28;20245;-48
2022/07/10 10:36:03;;;;;;;1.75;1.27;;;;;;;20.16;59.79;102700.13;5014600;28;20101;-47
2022/07/10 10:38:44;;;;;;;5.50;1.80;;;;;;;20.04;59.74;102692.97;5014463;28;20058;-52
2022/07/10 10:41:27;;;;;;;3.90;1.73;;;;;;;20.26;62.39;102696.16;5014798;28;20054;-49
2022/07/10 10:44:10;;;;;;;3.97;1.50;;;;;;;20.50;58.93;102688.81;5015385;28;20054;-50
2022/07/10 10:47:01;;;;;;;6.13;1.65;;;;;;;20.83;58.55;102680.56;5015099;28;20134;-50
2022/07/10 10:49:57;;;;;;;2.25;1.50;;;;;;;21.50;56.96;102687.16;5014412;28;20057;-47
2022/07/10 10:52:25;;;;;;;1.40;1.30;;;;;;;21.45;57.08;102687.06;5013727;28;20139;-52
2022/07/10 10:54:57;;;;;;;2.20;1.70;;;;;;;21.10;58.67;102689.69;5013419;28;20050;-46
2022/07/10 10:57:37;;;;;;;1.92;1.65;;;;;;;20.67;58.44;102699.97;5008563;28;20109;-50
2022/07/10 11:00:09;;;;;;;1.58;1.33;;;;;;;20.49;60.42;102700.84;5013189;28;20061;-50
2022/07/10 11:02:39;;;;;;;2.00;1.60;;;;;;;20.39;59.80;102690.56;5013942;28;20089;-45
2022/07/10 11:05:12;;;;;;;7.68;1.77;;;;;;;20.24;59.31;102687.75;5012810;28;20173;-46
2022/07/10 11:07:55;;;;;;;1.67;1.42;;;;;;;20.07;59.81;102690.09;5012762;28;20050;-46
2022/07/10 11:10:42;;;;;;;2.25;1.75;;;;;;;19.95;59.42;102680.28;5011780;28;20055;-45
2022/07/10 11:13:17;;;;;;;2.55;1.80;;;;;;;19.83;61.48;102689.31;5013050;28;20061;-45
2022/07/10 11:15:48;;;;;;;2.00;1.80;;;;;;;19.97;61.77;102691.38;5012868;28;20417;-49
2022/07/10 11:18:16;;;;;;;2.47;1.70;;;;;;;20.28;62.02;102685.63;5011756;28;20062;-51
2022/07/10 11:20:49;;;;;;;6.28;1.70;;;;;;;20.56;59.48;102681.56;5011461;28;20177;-47
2022/07/10 11:23:51;;;;;;;5.88;1.50;;;;;;;20.56;58.94;102681.56;5012827;28;20050;-46
2022/07/10 11:26:35;;;;;;;3.25;1.40;;;;;;;20.58;58.72;102687.25;5011390;28;20058;-47
2022/07/10 11:29:06;;;;;;;2.75;1.75;;;;;;;20.70;59.04;102687.47;5011356;28;20078;-50
2022/07/10 11:31:44;;;;;;;4.22;1.67;;;;;;;20.67;59.05;102686.44;5012937;28;20050;-49
2022/07/10 11:34:11;;;;;;;1.95;1.35;;;;;;;20.69;57.47;102681.31;5011166;28;20051;-48
2022/07/10 11:36:39;;;;;;;3.05;1.65;;;;;;;20.72;58.86;102674.97;5012242;28;20138;-48
2022/07/10 11:39:08;;;;;;;3.10;1.50;;;;;;;20.87;56.18;102680.41;5011826;28;20149;-46